createdAt,value
2018-11-25T00:01:26.152Z,23.27
2018-11-25T00:03:53.297Z,26.57
2018-11-25T00:06:20.409Z,22.20
2018-11-25T00:08:47.540Z,23.50
2018-11-25T00:11:14.706Z,22.27
2018-11-25T00:13:41.886Z,24.50
2018-11-25T00:16:09.046Z,24.37
2018-11-25T00:18:36.182Z,25.80
2018-11-25T00:21:03.344Z,25.53
2018-11-25T00:23:30.489Z,23.03
2018-11-25T00:25:57.619Z,24.37
2018-11-25T00:28:24.746Z,26.40
2018-11-25T00:30:51.906Z,24.43
2018-11-25T00:33:19.076Z,23.27
2018-11-25T00:35:46.222Z,20.53
2018-11-25T00:38:13.382Z,21.33
2018-11-25T00:40:40.524Z,21.83
2018-11-25T00:43:07.654Z,21.27
2018-11-25T00:45:34.794Z,22.37
2018-11-25T00:48:01.935Z,21.53
2018-11-25T00:50:29.137Z,20.10
2018-11-25T00:52:56.311Z,26.73
2018-11-25T00:55:23.449Z,20.07
2018-11-25T00:57:50.599Z,24.97
2018-11-25T01:00:18.531Z,20.93
2018-11-25T01:02:46.557Z,25.17
2018-11-25T01:05:13.697Z,26.27
2018-11-25T01:07:40.821Z,27.57
2018-11-25T01:10:10.216Z,24.70
2018-11-25T01:12:37.390Z,27.37
2018-11-25T01:15:06.212Z,28.67
2018-11-25T01:17:33.516Z,24.40
2018-11-25T01:20:00.624Z,28.17
2018-11-25T01:22:27.753Z,28.33
2018-11-25T01:24:54.868Z,29.83
2018-11-25T01:27:21.992Z,26.40
2018-11-25T01:29:49.113Z,28.70
2018-11-25T01:32:16.240Z,27.43
2018-11-25T01:34:43.369Z,26.70
2018-11-25T01:37:10.497Z,26.17
2018-11-25T01:39:37.624Z,32.10
2018-11-25T01:42:04.769Z,25.60
2018-11-25T01:44:31.887Z,30.07
2018-11-25T01:46:59.029Z,25.63
2018-11-25T01:49:26.155Z,25.67
2018-11-25T01:51:53.320Z,22.70
2018-11-25T01:54:20.428Z,25.33
2018-11-25T01:56:47.565Z,20.83
2018-11-25T01:59:14.693Z,21.13
2018-11-25T02:01:41.787Z,25.57
2018-11-25T02:04:08.915Z,21.53
2018-11-25T02:06:36.042Z,24.00
2018-11-25T02:09:04.712Z,20.80
2018-11-25T02:11:31.834Z,24.30
2018-11-25T02:13:58.949Z,23.80
2018-11-25T02:16:26.067Z,18.47
2018-11-25T02:18:53.321Z,23.70
2018-11-25T02:21:20.449Z,28.10
2018-11-25T02:23:47.564Z,24.20
2018-11-25T02:26:14.766Z,33.47
2018-11-25T02:28:41.889Z,30.13
2018-11-25T02:31:09.011Z,32.77
2018-11-25T02:33:36.165Z,40.70
2018-11-25T02:36:03.289Z,31.53
2018-11-25T02:38:30.401Z,28.77
2018-11-25T02:40:57.529Z,36.40
2018-11-25T02:43:24.650Z,28.47
2018-11-25T02:45:51.759Z,29.27
2018-11-25T02:48:18.858Z,29.10
2018-11-25T02:50:46.175Z,24.23
2018-11-25T02:53:13.290Z,28.00
2018-11-25T02:55:40.419Z,31.07
2018-11-25T02:58:07.520Z,32.50
2018-11-25T03:00:34.647Z,23.70
2018-11-25T03:03:01.786Z,27.60
2018-11-25T03:05:28.923Z,26.20
2018-11-25T03:07:56.043Z,18.70
2018-11-25T03:10:23.183Z,22.70
2018-11-25T03:12:50.410Z,22.13
2018-11-25T03:15:17.732Z,24.23
2018-11-25T03:17:44.986Z,22.17
2018-11-25T03:20:13.190Z,18.90
2018-11-25T03:22:40.312Z,19.87
2018-11-25T03:25:12.612Z,25.10
2018-11-25T03:27:39.760Z,18.07
2018-11-25T03:30:09.769Z,20.67
2018-11-25T03:32:36.995Z,20.17
2018-11-25T03:35:04.182Z,19.43
2018-11-25T03:37:31.290Z,19.37
2018-11-25T03:39:58.464Z,19.23
2018-11-25T03:42:25.756Z,24.93
2018-11-25T03:44:52.863Z,22.13
2018-11-25T03:47:20.223Z,18.03
2018-11-25T03:49:47.390Z,18.67
2018-11-25T03:52:14.538Z,17.40
2018-11-25T03:54:41.675Z,17.43
2018-11-25T03:57:08.797Z,14.63
2018-11-25T03:59:35.919Z,13.93
2018-11-25T04:02:03.066Z,13.20
2018-11-25T04:04:30.174Z,18.07
2018-11-25T04:06:57.285Z,14.67
2018-11-25T04:09:24.403Z,11.87
2018-11-25T04:11:51.558Z,13.67
2018-11-25T04:14:18.667Z,12.43
2018-11-25T04:16:45.784Z,11.67
2018-11-25T04:19:12.911Z,12.60
2018-11-25T04:21:40.022Z,10.83
2018-11-25T04:24:07.147Z,9.67
2018-11-25T04:26:34.241Z,11.60
2018-11-25T04:29:01.343Z,11.03
2018-11-25T04:31:28.449Z,11.63
2018-11-25T04:33:55.591Z,10.40
2018-11-25T04:36:22.712Z,11.63
2018-11-25T04:38:49.820Z,10.43
2018-11-25T04:41:16.935Z,10.30
2018-11-25T04:43:44.056Z,13.47
2018-11-25T04:46:11.163Z,12.57
2018-11-25T04:48:38.290Z,10.90
2018-11-25T04:51:05.491Z,9.33
2018-11-25T04:53:32.624Z,7.80
2018-11-25T04:55:59.725Z,7.70
2018-11-25T04:58:26.830Z,8.47
2018-11-25T05:00:54.008Z,7.00
2018-11-25T05:03:21.143Z,9.53
2018-11-25T05:05:48.307Z,8.23
2018-11-25T05:08:15.431Z,7.27
2018-11-25T05:10:42.548Z,8.00
2018-11-25T05:13:09.650Z,7.73
2018-11-25T05:15:36.820Z,10.13
2018-11-25T05:18:03.942Z,10.10
2018-11-25T05:20:31.044Z,11.70
2018-11-25T05:22:58.153Z,15.43
2018-11-25T05:25:25.278Z,13.97
2018-11-25T05:27:52.905Z,14.90
2018-11-25T05:30:20.255Z,15.20
2018-11-25T05:32:47.377Z,13.20
2018-11-25T05:35:21.279Z,14.00
2018-11-25T05:37:48.436Z,10.00
2018-11-25T05:40:15.976Z,10.30
2018-11-25T05:42:43.165Z,9.30
2018-11-25T05:45:12.068Z,13.33
2018-11-25T05:47:39.195Z,12.77
2018-11-25T05:50:08.311Z,9.63
2018-11-25T05:52:35.435Z,10.63
2018-11-25T05:55:02.725Z,11.90
2018-11-25T05:57:29.835Z,14.63
2018-11-25T05:59:56.949Z,12.43
2018-11-25T06:02:24.060Z,12.97
2018-11-25T06:04:52.052Z,13.70
2018-11-25T06:07:19.160Z,11.13
2018-11-25T06:09:46.276Z,9.47
2018-11-25T06:12:13.399Z,11.77
2018-11-25T06:14:40.518Z,15.73
2018-11-25T06:17:07.623Z,19.20
2018-11-25T06:19:34.738Z,14.80
2018-11-25T06:22:01.842Z,14.07
2018-11-25T06:24:28.938Z,20.07
2018-11-25T06:26:56.048Z,19.80
2018-11-25T06:29:23.155Z,14.87
2018-11-25T06:31:50.260Z,19.53
2018-11-25T06:34:17.358Z,15.00
2018-11-25T06:36:44.484Z,13.17
2018-11-25T06:39:11.600Z,13.73
2018-11-25T06:41:38.711Z,13.90
2018-11-25T06:44:06.011Z,16.73
2018-11-25T06:46:33.107Z,15.97
2018-11-25T06:49:00.211Z,16.97
2018-11-25T06:51:27.310Z,13.87
2018-11-25T06:53:54.415Z,14.30
2018-11-25T06:56:27.403Z,17.10
2018-11-25T06:58:48.654Z,15.23
2018-11-25T07:01:15.814Z,14.77
2018-11-25T07:03:46.039Z,13.10
2018-11-25T07:06:13.177Z,13.10
2018-11-25T07:08:40.302Z,11.93
2018-11-25T07:11:07.455Z,14.77
2018-11-25T07:13:35.271Z,13.67
2018-11-25T07:16:02.440Z,16.37
2018-11-25T07:18:29.565Z,12.47
2018-11-25T07:20:56.728Z,14.07
2018-11-25T07:23:23.866Z,12.40
2018-11-25T07:25:51.004Z,16.47
2018-11-25T07:28:18.826Z,17.13
2018-11-25T07:30:45.288Z,14.87
2018-11-25T07:33:12.472Z,13.60
2018-11-25T07:35:39.615Z,12.47
2018-11-25T07:38:06.770Z,13.57
2018-11-25T07:40:35.206Z,12.40
2018-11-25T07:43:01.074Z,12.07
2018-11-25T07:45:30.533Z,11.20
2018-11-25T07:47:55.366Z,12.60
2018-11-25T07:50:22.523Z,12.17
2018-11-25T07:52:50.224Z,14.03
2018-11-25T07:55:19.411Z,14.37
2018-11-25T07:57:47.073Z,15.83
2018-11-25T08:00:16.868Z,12.97
2018-11-25T08:02:44.034Z,17.53
2018-11-25T08:05:15.364Z,11.50
2018-11-25T08:07:42.506Z,12.60
2018-11-25T08:10:13.358Z,13.03
2018-11-25T08:12:40.491Z,11.90
2018-11-25T08:15:09.239Z,13.87
2018-11-25T08:17:36.367Z,10.40
2018-11-25T08:20:04.659Z,15.37
2018-11-25T08:22:31.791Z,9.40
2018-11-25T08:24:58.937Z,10.83
2018-11-25T08:27:26.047Z,10.40
2018-11-25T08:29:53.191Z,9.87
2018-11-25T08:32:20.323Z,10.43
2018-11-25T08:34:47.473Z,10.00
2018-11-25T08:37:14.629Z,13.00
2018-11-25T08:39:41.782Z,9.73
2018-11-25T08:42:08.934Z,9.97
2018-11-25T08:44:36.069Z,10.13
2018-11-25T08:47:03.220Z,12.23
2018-11-25T08:49:30.337Z,8.73
2018-11-25T08:51:57.488Z,11.43
2018-11-25T08:54:24.620Z,10.90
2018-11-25T08:56:51.754Z,8.87
2018-11-25T08:59:18.871Z,7.03
2018-11-25T09:01:45.996Z,10.27
2018-11-25T09:04:13.148Z,8.57
2018-11-25T09:06:40.287Z,7.27
2018-11-25T09:09:07.743Z,7.93
2018-11-25T09:11:34.910Z,9.23
2018-11-25T09:14:02.081Z,8.77
2018-11-25T09:16:29.197Z,7.30
2018-11-25T09:18:56.372Z,7.70
2018-11-25T09:21:23.513Z,7.57
2018-11-25T09:23:50.678Z,8.57
2018-11-25T09:26:17.819Z,8.07
2018-11-25T09:28:44.934Z,8.20
2018-11-25T09:31:12.082Z,8.90
2018-11-25T09:33:39.180Z,8.33
2018-11-25T09:36:06.300Z,8.27
2018-11-25T09:38:33.404Z,11.37
2018-11-25T09:41:00.532Z,10.73
2018-11-25T09:43:27.647Z,14.03
2018-11-25T09:45:55.438Z,13.73
2018-11-25T09:48:22.643Z,13.60
2018-11-25T09:50:49.775Z,16.17
2018-11-25T09:53:16.901Z,15.53
2018-11-25T09:55:44.062Z,17.83
2018-11-25T09:58:11.248Z,16.50
2018-11-25T10:00:38.385Z,14.97
2018-11-25T10:03:06.608Z,14.80
2018-11-25T10:05:33.753Z,14.23
2018-11-25T10:08:00.893Z,15.20
2018-11-25T10:10:28.058Z,19.47
2018-11-25T10:12:55.171Z,15.10
2018-11-25T10:15:23.560Z,16.47
2018-11-25T10:17:50.679Z,17.00
2018-11-25T10:20:28.532Z,17.47
2018-11-25T10:22:55.705Z,19.13
2018-11-25T10:25:22.833Z,17.03
2018-11-25T10:27:49.975Z,17.20
2018-11-25T10:30:18.991Z,19.97
2018-11-25T10:32:48.089Z,18.50
2018-11-25T10:35:15.214Z,17.40
2018-11-25T10:37:42.342Z,19.43
2018-11-25T10:40:10.692Z,18.23
2018-11-25T10:42:37.855Z,24.80
2018-11-25T10:45:07.527Z,19.20
2018-11-25T10:47:34.655Z,23.70
2018-11-25T10:50:01.853Z,19.23
2018-11-25T10:52:28.976Z,18.20
2018-11-25T10:54:56.120Z,18.60
2018-11-25T10:57:23.229Z,17.30
2018-11-25T10:59:50.347Z,14.90
2018-11-25T11:02:18.876Z,16.17
2018-11-25T11:04:52.036Z,16.33
2018-11-25T11:07:21.243Z,18.40
2018-11-25T11:09:48.498Z,14.50
2018-11-25T11:12:15.664Z,17.87
2018-11-25T11:14:42.783Z,15.83
2018-11-25T11:17:09.895Z,14.97
2018-11-25T11:19:37.032Z,13.57
2018-11-25T11:22:04.292Z,14.40
2018-11-25T11:24:31.443Z,13.33
2018-11-25T11:26:58.551Z,11.60
2018-11-25T11:29:25.669Z,18.10
2018-11-25T11:31:52.788Z,11.47
2018-11-25T11:34:19.935Z,12.00
2018-11-25T11:36:47.080Z,13.13
2018-11-25T11:39:14.260Z,12.53
2018-11-25T11:41:41.386Z,12.60
2018-11-25T11:44:08.495Z,12.33
2018-11-25T11:46:35.655Z,13.83
2018-11-25T11:49:02.801Z,12.37
2018-11-25T11:51:29.983Z,12.57
2018-11-25T11:53:57.076Z,14.10
2018-11-25T11:56:24.255Z,13.37
2018-11-25T11:58:51.389Z,14.33
2018-11-25T12:01:18.516Z,14.57
2018-11-25T12:03:45.655Z,12.83
2018-11-25T12:06:12.771Z,12.87
2018-11-25T12:08:39.898Z,13.60
2018-11-25T12:11:07.023Z,12.73
2018-11-25T12:13:34.171Z,15.87
2018-11-25T12:16:01.310Z,12.73
2018-11-25T12:18:28.459Z,13.23
2018-11-25T12:20:55.599Z,11.47
2018-11-25T12:23:22.766Z,13.47
2018-11-25T12:25:49.899Z,13.27
2018-11-25T12:28:17.020Z,13.17
2018-11-25T12:30:44.186Z,13.23
2018-11-25T12:33:11.508Z,10.10
2018-11-25T12:35:38.644Z,14.93
2018-11-25T12:38:06.064Z,11.37
2018-11-25T12:40:33.196Z,11.53
2018-11-25T12:43:00.339Z,14.43
2018-11-25T12:45:27.483Z,13.20
2018-11-25T12:47:54.630Z,14.77
2018-11-25T12:50:23.047Z,8.93
2018-11-25T12:52:50.255Z,12.17
2018-11-25T12:55:18.641Z,18.00
2018-11-25T12:57:45.807Z,11.43
2018-11-25T13:00:47.623Z,11.30
2018-11-25T13:03:14.796Z,11.83
2018-11-25T13:05:46.245Z,13.23
2018-11-25T13:08:10.047Z,8.90
2018-11-25T13:10:37.212Z,10.70
2018-11-25T13:13:05.519Z,9.03
2018-11-25T13:15:39.446Z,11.47
2018-11-25T13:18:07.622Z,9.93
2018-11-25T13:20:34.894Z,10.13
2018-11-25T13:23:02.067Z,11.60
2018-11-25T13:25:29.208Z,15.63
2018-11-25T13:27:56.375Z,9.87
2018-11-25T13:30:24.797Z,9.20
2018-11-25T13:32:52.987Z,10.87
2018-11-25T13:35:20.274Z,10.80
2018-11-25T13:37:47.406Z,11.27
2018-11-25T13:40:15.357Z,9.00
2018-11-25T13:42:42.616Z,8.43
2018-11-25T13:45:10.127Z,11.00
2018-11-25T13:47:37.492Z,9.90
2018-11-25T13:50:05.855Z,9.43
2018-11-25T13:52:33.050Z,10.30
2018-11-25T13:55:00.230Z,8.37
2018-11-25T13:57:27.392Z,10.03
2018-11-25T13:59:54.604Z,9.57
2018-11-25T14:02:21.880Z,10.67
2018-11-25T14:04:49.026Z,13.57
2018-11-25T14:07:16.173Z,8.43
2018-11-25T14:09:43.392Z,10.90
2018-11-25T14:12:10.543Z,7.50
2018-11-25T14:14:37.686Z,8.67
2018-11-25T14:17:04.892Z,8.87
2018-11-25T14:19:32.059Z,11.13
2018-11-25T14:21:59.270Z,8.30
2018-11-25T14:24:26.406Z,10.90
2018-11-25T14:26:58.131Z,10.17
2018-11-25T14:29:25.704Z,8.93
2018-11-25T14:31:52.880Z,8.57
2018-11-25T14:34:20.058Z,9.13
2018-11-25T14:36:47.500Z,10.03
2018-11-25T14:39:14.654Z,11.27
2018-11-25T14:41:41.798Z,10.37
2018-11-25T14:44:09.805Z,8.97
2018-11-25T14:46:36.999Z,6.87
2018-11-25T14:49:04.444Z,8.20
2018-11-25T14:51:31.644Z,9.23
2018-11-25T14:53:58.831Z,8.17
2018-11-25T14:56:26.031Z,8.87
2018-11-25T14:58:53.171Z,13.17
2018-11-25T15:01:20.362Z,8.63
2018-11-25T15:03:49.087Z,12.03
2018-11-25T15:06:16.212Z,9.97
2018-11-25T15:08:43.405Z,8.70
2018-11-25T15:11:10.583Z,9.40
2018-11-25T15:13:37.731Z,9.77
2018-11-25T15:16:07.363Z,9.47
2018-11-25T15:18:34.540Z,12.37
2018-11-25T15:21:01.717Z,8.47
2018-11-25T15:23:28.879Z,8.57
2018-11-25T15:25:56.042Z,8.83
2018-11-25T15:28:23.184Z,8.77
2018-11-25T15:30:50.368Z,11.20
2018-11-25T15:33:17.513Z,12.50
2018-11-25T15:35:44.679Z,8.53
2018-11-25T15:38:11.898Z,7.93
2018-11-25T15:40:39.503Z,10.47
2018-11-25T15:43:07.650Z,11.13
2018-11-25T15:45:34.835Z,9.10
2018-11-25T15:48:20.566Z,7.27
2018-11-25T15:50:48.186Z,8.63
2018-11-25T15:53:15.359Z,12.87
2018-11-25T15:55:43.607Z,11.60
2018-11-25T15:58:10.768Z,8.17
2018-11-25T16:00:37.958Z,7.73
2018-11-25T16:03:07.340Z,8.40
2018-11-25T16:05:34.517Z,9.57
2018-11-25T16:08:01.736Z,9.47
2018-11-25T16:10:28.883Z,9.13
2018-11-25T16:12:56.025Z,10.03
2018-11-25T16:15:24.622Z,10.23
2018-11-25T16:17:51.795Z,12.27
2018-11-25T16:20:20.105Z,11.83
2018-11-25T16:22:48.709Z,10.77
2018-11-25T16:25:25.452Z,10.60
2018-11-25T16:27:54.767Z,10.77
2018-11-25T16:30:21.921Z,16.30
2018-11-25T16:32:49.090Z,11.60
2018-11-25T16:35:16.338Z,16.97
2018-11-25T16:37:43.468Z,13.17
2018-11-25T16:40:12.197Z,8.07
2018-11-25T16:42:39.855Z,7.20
2018-11-25T16:45:10.391Z,8.73
2018-11-25T16:47:37.544Z,4.60
2018-11-25T16:50:07.965Z,5.13
2018-11-25T16:52:35.144Z,4.33
2018-11-25T16:55:02.765Z,5.73
2018-11-25T17:00:07.229Z,4.20
2018-11-25T17:02:34.371Z,4.60
2018-11-25T17:05:01.584Z,7.13
2018-11-25T17:07:28.712Z,5.23
2018-11-25T17:09:55.864Z,8.00
2018-11-25T17:12:23.008Z,8.27
2018-11-25T17:14:50.266Z,7.83
2018-11-25T17:17:17.528Z,7.03
2018-11-25T17:19:44.770Z,11.03
2018-11-25T17:22:16.577Z,8.27
2018-11-25T17:24:39.181Z,8.07
2018-11-25T17:27:06.340Z,8.93
2018-11-25T17:29:33.488Z,8.53
2018-11-25T17:32:00.632Z,7.53
2018-11-25T17:34:27.812Z,10.37
2018-11-25T17:36:54.981Z,7.97
2018-11-25T17:39:22.253Z,8.43
2018-11-25T17:41:49.400Z,9.13
2018-11-25T17:44:16.543Z,9.33
2018-11-25T17:46:43.707Z,9.40
2018-11-25T17:49:10.860Z,9.97
2018-11-25T17:51:38.075Z,8.80
2018-11-25T17:54:05.596Z,9.10
2018-11-25T17:56:32.748Z,12.63
2018-11-25T17:59:00.006Z,10.40
2018-11-25T18:01:27.148Z,12.40
2018-11-25T18:03:54.290Z,11.73
2018-11-25T18:06:21.432Z,10.97
2018-11-25T18:08:48.591Z,12.93
2018-11-25T18:11:15.729Z,12.00
2018-11-25T18:13:42.900Z,12.77
2018-11-25T18:16:10.987Z,12.13
2018-11-25T18:18:46.134Z,13.83
2018-11-25T18:21:17.102Z,10.93
2018-11-25T18:23:44.227Z,10.77
2018-11-25T18:26:11.368Z,13.10
2018-11-25T18:28:38.505Z,10.67
2018-11-25T18:31:06.846Z,10.60
2018-11-25T18:33:33.971Z,11.33
2018-11-25T18:36:01.245Z,10.13
2018-11-25T18:38:28.468Z,13.97
2018-11-25T18:40:55.665Z,13.13
2018-11-25T18:43:22.841Z,13.47
2018-11-25T18:45:49.989Z,16.30
2018-11-25T18:48:17.483Z,13.77
2018-11-25T18:50:44.664Z,11.73
2018-11-25T18:53:12.106Z,12.77
2018-11-25T18:55:38.367Z,12.57
2018-11-25T18:58:05.698Z,12.30
2018-11-25T19:01:10.197Z,13.33
2018-11-25T19:03:37.372Z,12.20
2018-11-25T19:06:04.924Z,11.37
2018-11-25T19:08:32.087Z,13.00
2018-11-25T19:10:59.253Z,11.80
2018-11-25T19:13:26.433Z,16.27
2018-11-25T19:15:53.595Z,17.70
2018-11-25T19:18:20.747Z,15.23
2018-11-25T19:20:47.874Z,12.83
2018-11-25T19:23:14.994Z,14.53
2018-11-25T19:25:42.148Z,12.47
2018-11-25T19:28:09.659Z,15.40
2018-11-25T19:30:36.826Z,17.43
2018-11-25T19:33:04.313Z,13.03
2018-11-25T19:35:31.546Z,14.37
2018-11-25T19:37:58.720Z,14.93
2018-11-25T19:40:26.280Z,15.23
2018-11-25T19:42:53.730Z,19.87
2018-11-25T19:45:24.036Z,15.00
2018-11-25T19:47:51.257Z,14.43
2018-11-25T19:50:22.080Z,14.50
2018-11-25T19:52:49.320Z,11.73
2018-11-25T19:55:16.595Z,13.20
2018-11-25T19:57:43.826Z,18.33
2018-11-25T20:00:15.314Z,14.03
2018-11-25T20:02:42.572Z,13.23
2018-11-25T20:05:11.196Z,14.83
2018-11-25T20:07:38.562Z,14.57
2018-11-25T20:10:08.122Z,14.50
2018-11-25T20:12:40.165Z,12.93
2018-11-25T20:15:08.763Z,12.67
2018-11-25T20:17:36.054Z,14.63
2018-11-25T20:20:04.945Z,13.50
2018-11-25T20:22:32.220Z,12.77
2018-11-25T20:24:59.456Z,14.00
2018-11-25T20:27:32.788Z,19.43
2018-11-25T20:29:59.969Z,13.77
2018-11-25T20:32:32.953Z,14.63
2018-11-25T20:35:00.149Z,14.73
2018-11-25T20:37:27.286Z,20.37
2018-11-25T20:39:54.457Z,16.13
2018-11-25T20:42:21.648Z,15.50
2018-11-25T20:44:48.778Z,16.63
2018-11-25T20:47:15.952Z,13.90
2018-11-25T20:49:43.179Z,15.30
2018-11-25T20:52:16.191Z,15.90
2018-11-25T20:54:43.356Z,13.67
2018-11-25T20:57:10.495Z,11.73
2018-11-25T20:59:37.610Z,11.70
2018-11-25T21:02:04.802Z,11.03
2018-11-25T21:04:31.922Z,12.20
2018-11-25T21:06:59.045Z,9.40
2018-11-25T21:09:26.173Z,9.53
2018-11-25T21:11:53.435Z,10.50
2018-11-25T21:14:20.551Z,10.03
2018-11-25T21:16:47.674Z,9.93
2018-11-25T21:19:14.837Z,11.00
2018-11-25T21:21:41.984Z,10.27
2018-11-25T21:24:09.116Z,9.63
2018-11-25T21:26:36.255Z,10.13
2018-11-25T21:29:03.651Z,9.67
2018-11-25T21:31:30.798Z,9.13
2018-11-25T21:33:57.960Z,11.80
2018-11-25T21:36:25.152Z,10.93
2018-11-25T21:38:52.306Z,9.57
2018-11-25T21:41:19.482Z,7.20
2018-11-25T21:43:46.583Z,11.03
2018-11-25T21:46:13.740Z,13.50
2018-11-25T21:48:40.899Z,8.47
2018-11-25T21:51:08.224Z,9.47
2018-11-25T21:53:35.376Z,10.77
2018-11-25T21:56:02.566Z,11.47
2018-11-25T21:58:29.686Z,12.97
2018-11-25T22:00:56.820Z,11.87
2018-11-25T22:03:23.965Z,10.80
2018-11-25T22:05:51.105Z,8.83
2018-11-25T22:08:18.235Z,10.60
2018-11-25T22:10:45.378Z,9.87
2018-11-25T22:13:12.515Z,10.97
2018-11-25T22:15:39.725Z,12.10
2018-11-25T22:18:06.872Z,10.40
2018-11-25T22:20:34.007Z,9.97
2018-11-25T22:23:01.116Z,9.60
2018-11-25T22:25:28.236Z,15.30
2018-11-25T22:28:02.072Z,11.13
2018-11-25T22:30:29.282Z,10.50
2018-11-25T22:32:56.394Z,8.43
2018-11-25T22:35:23.555Z,9.53
2018-11-25T22:37:50.770Z,10.23
2018-11-25T22:40:18.604Z,10.83
2018-11-25T22:42:46.627Z,10.60
2018-11-25T22:45:14.813Z,8.30
2018-11-25T22:47:41.951Z,8.43
2018-11-25T22:50:11.134Z,11.43
2018-11-25T22:52:38.301Z,10.03
2018-11-25T22:55:09.704Z,8.93
2018-11-25T22:57:36.810Z,10.53
2018-11-25T23:00:18.782Z,13.03
2018-11-25T23:02:45.913Z,10.60
2018-11-25T23:05:24.609Z,13.53
2018-11-25T23:07:51.828Z,10.37
2018-11-25T23:10:19.023Z,12.57
2018-11-25T23:12:46.212Z,13.10
2018-11-25T23:15:13.370Z,9.90
2018-11-25T23:17:40.579Z,12.90
2018-11-25T23:20:07.794Z,11.17
2018-11-25T23:22:35.187Z,12.97
2018-11-25T23:25:02.359Z,12.17
2018-11-25T23:27:29.517Z,12.03
2018-11-25T23:29:56.666Z,14.07
2018-11-25T23:32:23.801Z,15.83
2018-11-25T23:34:50.967Z,11.80
2018-11-25T23:37:18.088Z,13.57
2018-11-25T23:39:45.224Z,12.13
2018-11-25T23:42:12.435Z,11.13
2018-11-25T23:44:39.623Z,17.33
2018-11-25T23:47:06.830Z,11.73
2018-11-25T23:49:35.237Z,14.70
2018-11-25T23:52:02.416Z,12.50
2018-11-25T23:54:29.828Z,15.40
2018-11-25T23:56:57.032Z,15.27
2018-11-25T23:59:24.185Z,18.83
